createdAt,value
2018-11-05T00:01:30.302Z,106.93
2018-11-05T00:03:59.093Z,107.00
2018-11-05T00:06:27.819Z,110.73
2018-11-05T00:08:56.578Z,110.53
2018-11-05T00:11:25.322Z,108.60
2018-11-05T00:13:54.065Z,113.93
2018-11-05T00:16:22.794Z,106.33
2018-11-05T00:18:51.629Z,112.50
2018-11-05T00:21:20.346Z,112.47
2018-11-05T00:23:49.095Z,113.20
2018-11-05T00:26:17.860Z,101.90
2018-11-05T00:28:46.648Z,110.17
2018-11-05T00:31:15.349Z,98.83
2018-11-05T00:33:44.124Z,113.73
2018-11-05T00:36:12.892Z,114.60
2018-11-05T00:38:41.606Z,104.07
2018-11-05T00:41:10.366Z,113.20
2018-11-05T00:43:39.154Z,106.53
2018-11-05T00:46:08.110Z,99.70
2018-11-05T00:48:36.846Z,109.10
2018-11-05T00:51:05.604Z,106.80
2018-11-05T00:53:34.352Z,116.57
2018-11-05T00:56:03.067Z,120.33
2018-11-05T00:58:31.795Z,104.07
2018-11-05T01:01:00.518Z,101.33
2018-11-05T01:03:29.261Z,107.97
2018-11-05T01:05:58.015Z,109.70
2018-11-05T01:08:26.725Z,120.97
2018-11-05T01:10:55.477Z,112.77
2018-11-05T01:13:24.227Z,111.43
2018-11-05T01:15:52.959Z,105.87
2018-11-05T01:18:21.686Z,118.27
2018-11-05T01:20:50.397Z,125.63
2018-11-05T01:23:19.321Z,127.77
2018-11-05T01:25:48.053Z,112.10
2018-11-05T01:28:16.779Z,111.43
2018-11-05T01:30:45.534Z,119.33
2018-11-05T01:33:14.261Z,108.43
2018-11-05T01:35:42.985Z,117.67
2018-11-05T01:38:11.716Z,112.93
2018-11-05T01:40:40.495Z,116.30
2018-11-05T01:43:09.213Z,112.67
2018-11-05T01:45:37.951Z,111.53
2018-11-05T01:48:06.755Z,120.00
2018-11-05T01:50:35.516Z,123.23
2018-11-05T01:53:04.290Z,109.73
2018-11-05T01:55:33.803Z,117.27
2018-11-05T01:58:02.541Z,111.67
2018-11-05T02:00:31.269Z,104.83
2018-11-05T02:02:59.994Z,114.03
2018-11-05T02:05:28.733Z,118.27
2018-11-05T02:07:57.463Z,116.07
2018-11-05T02:10:26.326Z,112.40
2018-11-05T02:12:54.951Z,110.20
2018-11-05T02:15:23.737Z,100.27
2018-11-05T02:17:52.489Z,107.80
2018-11-05T02:20:21.194Z,97.67
2018-11-05T02:22:49.955Z,107.53
2018-11-05T02:25:18.794Z,99.30
2018-11-05T02:27:47.584Z,107.83
2018-11-05T02:30:18.419Z,105.47
2018-11-05T02:32:47.668Z,96.70
2018-11-05T02:35:17.317Z,100.33
2018-11-05T02:37:46.673Z,93.53
2018-11-05T02:40:16.706Z,94.00
2018-11-05T02:42:45.875Z,95.23
2018-11-05T02:45:15.594Z,102.63
2018-11-05T02:47:44.344Z,100.07
2018-11-05T02:50:13.789Z,101.53
2018-11-05T02:52:43.498Z,85.10
2018-11-05T02:55:12.258Z,94.37
2018-11-05T02:57:41.004Z,108.23
2018-11-05T03:00:13.811Z,92.47
2018-11-05T03:02:42.643Z,102.33
2018-11-05T03:05:12.988Z,101.17
2018-11-05T03:07:42.076Z,97.20
2018-11-05T03:10:11.718Z,88.30
2018-11-05T03:12:41.093Z,100.53
2018-11-05T03:15:11.509Z,95.67
2018-11-05T03:17:40.243Z,98.77
2018-11-05T03:20:10.112Z,94.53
2018-11-05T03:22:39.497Z,87.43
2018-11-05T03:25:08.519Z,93.77
2018-11-05T03:27:37.683Z,94.83
2018-11-05T03:30:09.169Z,89.17
2018-11-05T03:32:37.931Z,87.37
2018-11-05T03:35:07.553Z,89.00
2018-11-05T03:37:36.298Z,93.87
2018-11-05T03:40:05.691Z,86.57
2018-11-05T03:42:34.414Z,84.60
2018-11-05T03:45:03.142Z,81.90
2018-11-05T03:47:31.867Z,79.40
2018-11-05T03:50:00.643Z,89.70
2018-11-05T03:52:29.448Z,82.17
2018-11-05T03:54:58.191Z,80.33
2018-11-05T03:57:26.965Z,76.37
2018-11-05T03:59:55.692Z,78.33
2018-11-05T04:02:24.518Z,78.00
2018-11-05T04:04:53.254Z,80.57
2018-11-05T04:07:21.981Z,90.70
2018-11-05T04:09:50.757Z,83.07
2018-11-05T04:12:19.507Z,78.10
2018-11-05T04:14:48.202Z,78.47
2018-11-05T04:17:17.131Z,81.87
2018-11-05T04:19:45.834Z,79.57
2018-11-05T04:22:14.578Z,75.23
2018-11-05T04:24:43.267Z,80.17
2018-11-05T04:27:12.015Z,81.07
2018-11-05T04:29:40.711Z,74.60
2018-11-05T04:32:09.420Z,75.77
2018-11-05T04:34:38.128Z,68.90
2018-11-05T04:37:06.871Z,74.07
2018-11-05T04:39:35.571Z,75.23
2018-11-05T04:42:04.331Z,72.53
2018-11-05T04:44:33.030Z,81.67
2018-11-05T04:47:01.755Z,76.63
2018-11-05T04:49:30.455Z,83.30
2018-11-05T04:51:59.234Z,76.70
2018-11-05T04:54:27.951Z,76.10
2018-11-05T04:56:56.681Z,76.20
2018-11-05T04:59:25.399Z,79.87
2018-11-05T05:01:54.157Z,85.47
2018-11-05T05:04:22.849Z,77.97
2018-11-05T05:06:51.649Z,79.93
2018-11-05T05:09:20.357Z,78.77
2018-11-05T05:11:49.096Z,71.80
2018-11-05T05:14:17.905Z,77.63
2018-11-05T05:16:46.613Z,74.67
2018-11-05T05:19:15.387Z,77.93
2018-11-05T05:21:44.097Z,78.73
2018-11-05T05:24:13.246Z,77.13
2018-11-05T05:26:41.951Z,81.53
2018-11-05T05:29:11.040Z,71.33
2018-11-05T05:31:39.751Z,75.63
2018-11-05T05:34:08.492Z,80.17
2018-11-05T05:36:37.214Z,79.57
2018-11-05T05:39:07.482Z,75.17
2018-11-05T05:41:36.191Z,76.87
2018-11-05T05:44:04.956Z,79.93
2018-11-05T05:46:33.673Z,73.83
2018-11-05T05:49:02.431Z,70.00
2018-11-05T05:51:31.206Z,75.93
2018-11-05T05:53:59.964Z,66.73
2018-11-05T05:56:28.694Z,83.87
2018-11-05T05:58:57.421Z,67.20
2018-11-05T06:01:26.180Z,72.10
2018-11-05T06:03:55.070Z,72.13
2018-11-05T06:06:23.911Z,66.67
2018-11-05T06:08:52.644Z,70.17
2018-11-05T06:11:21.588Z,69.27
2018-11-05T06:13:50.354Z,69.17
2018-11-05T06:16:19.125Z,70.43
2018-11-05T06:18:47.844Z,76.53
2018-11-05T06:21:16.568Z,71.57
2018-11-05T06:23:45.537Z,65.53
2018-11-05T06:26:14.286Z,67.97
2018-11-05T06:28:43.169Z,70.20
2018-11-05T06:31:11.867Z,67.30
2018-11-05T06:33:40.699Z,63.40
2018-11-05T06:36:09.437Z,66.10
2018-11-05T06:38:38.320Z,72.23
2018-11-05T06:41:07.760Z,76.73
2018-11-05T06:43:36.474Z,72.60
2018-11-05T06:46:05.596Z,65.37
2018-11-05T06:48:34.406Z,75.07
2018-11-05T06:51:03.213Z,67.27
2018-11-05T06:53:32.186Z,69.00
2018-11-05T06:56:00.989Z,65.70
2018-11-05T06:58:29.764Z,65.07
2018-11-05T07:00:58.528Z,68.53
2018-11-05T07:03:27.743Z,63.70
2018-11-05T07:05:56.712Z,63.20
2018-11-05T07:08:25.375Z,68.33
2018-11-05T07:10:54.174Z,66.03
2018-11-05T07:13:23.051Z,71.33
2018-11-05T07:15:51.801Z,78.23
2018-11-05T07:18:20.575Z,70.87
2018-11-05T07:20:49.443Z,66.00
2018-11-05T07:23:18.283Z,67.60
2018-11-05T07:25:47.041Z,72.83
2018-11-05T07:28:15.856Z,66.63
2018-11-05T07:30:44.881Z,71.33
2018-11-05T07:33:14.210Z,64.33
2018-11-05T07:35:43.256Z,68.97
2018-11-05T07:38:12.106Z,69.70
2018-11-05T07:40:40.890Z,68.17
2018-11-05T07:43:09.662Z,75.27
2018-11-05T07:45:38.404Z,79.10
2018-11-05T07:48:07.162Z,75.07
2018-11-05T07:50:35.985Z,65.87
2018-11-05T07:53:05.372Z,60.23
2018-11-05T07:55:34.328Z,66.67
2018-11-05T07:58:03.046Z,67.00
2018-11-05T08:00:37.114Z,60.70
2018-11-05T08:03:06.313Z,69.57
2018-11-05T08:05:35.064Z,69.63
2018-11-05T08:08:04.038Z,66.47
2018-11-05T08:10:32.820Z,60.93
2018-11-05T08:13:08.392Z,65.53
2018-11-05T08:15:37.153Z,69.77
2018-11-05T08:18:06.000Z,61.00
2018-11-05T08:20:34.728Z,64.93
2018-11-05T08:23:03.503Z,62.87
2018-11-05T08:25:32.315Z,65.67
2018-11-05T08:28:01.042Z,63.63
2018-11-05T08:30:29.809Z,65.93
2018-11-05T08:32:58.767Z,66.40
2018-11-05T08:35:27.560Z,65.17
2018-11-05T08:37:56.328Z,57.97
2018-11-05T08:40:26.988Z,64.47
2018-11-05T08:42:56.522Z,73.43
2018-11-05T08:45:26.668Z,65.63
2018-11-05T08:47:55.483Z,64.57
2018-11-05T08:50:24.774Z,63.17
2018-11-05T08:52:53.820Z,56.20
2018-11-05T08:55:23.870Z,65.00
2018-11-05T08:57:52.665Z,62.70
2018-11-05T09:00:26.889Z,61.57
2018-11-05T09:02:56.123Z,67.10
2018-11-05T09:05:25.168Z,63.57
2018-11-05T09:07:54.769Z,62.17
2018-11-05T09:10:23.763Z,63.07
2018-11-05T09:12:52.326Z,58.30
2018-11-05T09:15:21.941Z,55.60
2018-11-05T09:17:50.903Z,56.07
2018-11-05T09:20:20.122Z,53.43
2018-11-05T09:22:49.857Z,55.40
2018-11-05T09:25:18.662Z,63.63
2018-11-05T09:27:47.567Z,59.63
2018-11-05T09:30:18.591Z,56.63
2018-11-05T09:32:47.664Z,59.07
2018-11-05T09:35:16.726Z,62.90
2018-11-05T09:37:45.666Z,58.73
2018-11-05T09:40:17.814Z,55.57
2018-11-05T09:42:47.185Z,54.53
2018-11-05T09:45:18.316Z,57.20
2018-11-05T09:47:47.502Z,56.27
2018-11-05T09:50:17.005Z,61.93
2018-11-05T09:52:45.778Z,61.13
2018-11-05T09:55:15.078Z,50.47
2018-11-05T09:57:43.986Z,49.87
2018-11-05T10:00:14.909Z,57.70
2018-11-05T10:02:49.118Z,49.20
2018-11-05T10:05:18.334Z,49.47
2018-11-05T10:07:47.214Z,45.27
2018-11-05T10:10:16.829Z,57.07
2018-11-05T10:12:45.602Z,50.00
2018-11-05T10:15:15.418Z,54.90
2018-11-05T10:17:44.652Z,51.00
2018-11-05T10:20:15.751Z,50.77
2018-11-05T10:22:45.041Z,53.60
2018-11-05T10:25:14.458Z,46.20
2018-11-05T10:27:43.122Z,52.13
2018-11-05T10:30:15.623Z,46.70
2018-11-05T10:32:44.886Z,48.13
2018-11-05T10:35:14.471Z,47.47
2018-11-05T10:37:43.277Z,52.33
2018-11-05T10:40:15.111Z,53.63
2018-11-05T10:42:44.966Z,48.57
2018-11-05T10:45:15.081Z,48.40
2018-11-05T10:47:43.838Z,47.50
2018-11-05T10:50:13.759Z,48.33
2018-11-05T10:52:43.128Z,45.27
2018-11-05T10:55:11.983Z,43.17
2018-11-05T10:57:41.439Z,44.83
2018-11-05T11:00:21.476Z,52.80
2018-11-05T11:02:55.807Z,44.13
2018-11-05T11:05:25.309Z,43.60
2018-11-05T11:07:55.181Z,41.13
2018-11-05T11:10:25.124Z,42.23
2018-11-05T11:12:53.917Z,48.90
2018-11-05T11:15:23.097Z,46.67
2018-11-05T11:17:52.201Z,47.40
2018-11-05T11:20:20.910Z,42.73
2018-11-05T11:22:49.685Z,47.13
2018-11-05T11:25:18.436Z,43.90
2018-11-05T11:27:47.285Z,44.13
2018-11-05T11:30:16.836Z,44.77
2018-11-05T11:32:46.257Z,46.77
2018-11-05T11:35:15.121Z,43.23
2018-11-05T11:37:43.870Z,42.30
2018-11-05T11:40:15.304Z,46.07
2018-11-05T11:42:45.012Z,41.13
2018-11-05T11:45:14.602Z,41.00
2018-11-05T11:47:43.374Z,45.30
2018-11-05T11:50:14.752Z,48.50
2018-11-05T11:52:43.589Z,42.40
2018-11-05T11:55:16.076Z,39.23
2018-11-05T11:57:44.882Z,46.97
2018-11-05T12:00:19.123Z,39.27
2018-11-05T12:02:48.418Z,36.70
2018-11-05T12:05:17.336Z,41.57
2018-11-05T12:07:46.137Z,45.43
2018-11-05T12:10:18.745Z,44.40
2018-11-05T12:12:47.506Z,40.03
2018-11-05T12:15:17.304Z,42.97
2018-11-05T12:17:47.019Z,46.10
2018-11-05T12:20:17.153Z,44.07
2018-11-05T12:22:46.621Z,45.40
2018-11-05T12:25:15.391Z,41.87
2018-11-05T12:27:44.150Z,44.97
2018-11-05T12:30:15.327Z,43.63
2018-11-05T12:32:45.293Z,42.63
2018-11-05T12:35:14.279Z,39.93
2018-11-05T12:37:44.235Z,47.13
2018-11-05T12:40:14.787Z,45.40
2018-11-05T12:42:44.684Z,42.47
2018-11-05T12:45:13.582Z,40.53
2018-11-05T12:47:42.380Z,46.63
2018-11-05T12:50:14.053Z,41.27
2018-11-05T12:52:43.617Z,45.27
2018-11-05T12:55:12.466Z,45.03
2018-11-05T12:57:41.305Z,44.10
2018-11-05T13:00:13.837Z,40.30
2018-11-05T13:02:42.771Z,43.70
2018-11-05T13:05:12.738Z,43.50
2018-11-05T13:07:41.728Z,43.27
2018-11-05T13:10:12.630Z,39.90
2018-11-05T13:12:41.621Z,39.33
2018-11-05T13:15:11.032Z,41.27
2018-11-05T13:17:40.461Z,40.43
2018-11-05T13:20:13.692Z,43.17
2018-11-05T13:22:43.547Z,38.53
2018-11-05T13:25:12.545Z,38.07
2018-11-05T13:27:42.886Z,35.83
2018-11-05T13:30:12.398Z,37.03
2018-11-05T13:32:41.550Z,39.10
2018-11-05T13:35:13.660Z,37.10
2018-11-05T13:37:43.176Z,38.23
2018-11-05T13:40:14.704Z,40.73
2018-11-05T13:42:43.760Z,36.57
2018-11-05T13:45:13.526Z,39.60
2018-11-05T13:47:42.936Z,36.03
2018-11-05T13:50:12.433Z,42.40
2018-11-05T13:52:41.215Z,39.17
2018-11-05T13:55:12.248Z,40.30
2018-11-05T13:57:41.788Z,41.63
2018-11-05T14:00:12.468Z,36.03
2018-11-05T14:02:41.290Z,37.43
2018-11-05T14:05:10.764Z,38.47
2018-11-05T14:07:39.651Z,37.83
2018-11-05T14:10:12.874Z,39.70
2018-11-05T14:12:42.336Z,39.60
2018-11-05T14:15:11.074Z,36.87
2018-11-05T14:17:40.530Z,37.13
2018-11-05T14:20:10.364Z,38.97
2018-11-05T14:22:39.093Z,41.63
2018-11-05T14:25:09.673Z,37.37
2018-11-05T14:27:38.583Z,38.50
2018-11-05T14:30:08.517Z,39.27
2018-11-05T14:32:37.283Z,39.80
2018-11-05T14:35:06.304Z,32.90
2018-11-05T14:37:35.160Z,33.70
2018-11-05T14:40:04.439Z,34.50
2018-11-05T14:42:33.354Z,35.10
2018-11-05T14:45:02.109Z,35.17
2018-11-05T14:47:31.000Z,37.00
2018-11-05T14:49:59.720Z,35.43
2018-11-05T14:52:28.466Z,37.37
2018-11-05T14:54:57.236Z,35.80
2018-11-05T14:57:26.008Z,32.10
2018-11-05T14:59:54.754Z,34.83
2018-11-05T15:02:29.062Z,30.03
2018-11-05T15:04:58.008Z,32.10
2018-11-05T15:07:26.807Z,36.73
2018-11-05T15:09:55.522Z,37.67
2018-11-05T15:12:24.274Z,31.23
2018-11-05T15:14:52.998Z,32.23
2018-11-05T15:17:21.761Z,37.97
2018-11-05T15:19:50.770Z,36.03
2018-11-05T15:22:19.376Z,29.57
2018-11-05T15:24:48.131Z,33.43
2018-11-05T15:27:16.976Z,29.90
2018-11-05T15:29:45.723Z,32.83
2018-11-05T15:32:14.484Z,32.17
2018-11-05T15:34:43.263Z,34.30
2018-11-05T15:37:12.394Z,36.43
2018-11-05T15:39:41.407Z,31.40
2018-11-05T15:42:10.613Z,31.10
2018-11-05T15:44:39.664Z,33.27
2018-11-05T15:47:08.617Z,31.47
2018-11-05T15:49:37.329Z,34.60
2018-11-05T15:52:06.895Z,35.70
2018-11-05T15:54:35.649Z,33.17
2018-11-05T15:57:04.345Z,32.77
2018-11-05T15:59:33.145Z,31.40
2018-11-05T16:02:07.308Z,34.07
2018-11-05T16:04:36.159Z,40.73
2018-11-05T16:07:05.083Z,34.97
2018-11-05T16:09:34.040Z,37.07
2018-11-05T16:12:02.767Z,34.73
2018-11-05T16:14:31.615Z,37.97
2018-11-05T16:17:00.534Z,42.57
2018-11-05T16:19:29.541Z,36.73
2018-11-05T16:21:58.751Z,35.17
2018-11-05T16:24:28.030Z,38.70
2018-11-05T16:26:57.229Z,38.17
2018-11-05T16:29:25.985Z,40.27
2018-11-05T16:31:54.869Z,45.33
2018-11-05T16:34:23.617Z,34.93
2018-11-05T16:36:52.412Z,43.53
2018-11-05T16:39:21.201Z,39.20
2018-11-05T16:41:50.010Z,41.93
2018-11-05T16:44:19.098Z,39.27
2018-11-05T16:46:47.859Z,36.10
2018-11-05T16:49:16.657Z,38.47
2018-11-05T16:51:45.420Z,37.10
2018-11-05T16:54:14.230Z,38.07
2018-11-05T16:56:43.012Z,42.67
2018-11-05T16:59:11.790Z,37.30
2018-11-05T17:01:40.776Z,33.20
2018-11-05T17:04:09.293Z,41.10
2018-11-05T17:06:38.101Z,37.83
2018-11-05T17:09:08.200Z,41.47
2018-11-05T17:11:36.988Z,37.27
2018-11-05T17:14:06.146Z,41.40
2018-11-05T17:16:34.815Z,41.23
2018-11-05T17:19:03.671Z,38.40
2018-11-05T17:21:32.612Z,41.67
2018-11-05T17:24:01.358Z,45.97
2018-11-05T17:26:30.465Z,45.07
2018-11-05T17:28:59.258Z,42.57
2018-11-05T17:31:28.206Z,38.40
2018-11-05T17:33:57.078Z,39.80
2018-11-05T17:36:25.832Z,36.77
2018-11-05T17:38:54.547Z,41.50
2018-11-05T17:41:23.298Z,36.83
2018-11-05T17:43:52.044Z,38.90
2018-11-05T17:46:20.888Z,38.30
2018-11-05T17:48:49.635Z,37.57
2018-11-05T17:51:19.573Z,42.17
2018-11-05T17:53:48.794Z,36.73
2018-11-05T17:56:17.576Z,40.23
2018-11-05T17:58:46.289Z,40.77
2018-11-05T18:01:15.007Z,39.43
2018-11-05T18:03:43.826Z,39.47
2018-11-05T18:06:12.622Z,37.10
2018-11-05T18:08:41.416Z,37.87
2018-11-05T18:11:10.187Z,42.40
2018-11-05T18:13:38.917Z,41.73
2018-11-05T18:16:07.647Z,40.10
2018-11-05T18:18:36.801Z,35.50
2018-11-05T18:21:05.831Z,37.40
2018-11-05T18:23:34.544Z,39.87
2018-11-05T18:26:03.270Z,33.33
2018-11-05T18:28:32.063Z,37.27
2018-11-05T18:31:00.898Z,34.80
2018-11-05T18:33:29.591Z,35.80
2018-11-05T18:36:03.297Z,31.10
2018-11-05T18:38:32.057Z,33.20
2018-11-05T18:41:00.792Z,32.63
2018-11-05T18:43:29.540Z,37.83
2018-11-05T18:45:58.284Z,33.07
2018-11-05T18:48:27.073Z,32.30
2018-11-05T18:50:55.817Z,31.17
2018-11-05T18:53:24.595Z,32.50
2018-11-05T18:55:53.333Z,30.20
2018-11-05T18:58:22.108Z,31.90
2018-11-05T19:00:50.856Z,26.67
2018-11-05T19:03:19.787Z,31.47
2018-11-05T19:05:48.409Z,32.70
2018-11-05T19:08:17.211Z,27.57
2018-11-05T19:10:45.946Z,29.17
2018-11-05T19:13:14.743Z,29.03
2018-11-05T19:15:43.533Z,28.27
2018-11-05T19:18:12.326Z,31.10
2018-11-05T19:20:41.097Z,30.03
2018-11-05T19:23:09.868Z,27.87
2018-11-05T19:25:38.550Z,28.13
2018-11-05T19:28:07.306Z,28.40
2018-11-05T19:30:36.020Z,28.90
2018-11-05T19:33:05.167Z,28.53
2018-11-05T19:35:33.878Z,26.57
2018-11-05T19:38:02.635Z,27.43
2018-11-05T19:40:31.374Z,28.43
2018-11-05T19:43:00.153Z,29.17
2018-11-05T19:45:28.900Z,29.03
2018-11-05T19:47:58.016Z,30.80
2018-11-05T19:50:26.926Z,25.57
2018-11-05T19:52:55.950Z,29.70
2018-11-05T19:55:24.695Z,35.80
2018-11-05T19:57:53.814Z,30.23
2018-11-05T20:00:25.825Z,29.00
2018-11-05T20:02:54.982Z,33.33
2018-11-05T20:05:23.811Z,31.00
2018-11-05T20:07:53.248Z,25.00
2018-11-05T20:10:21.969Z,28.33
2018-11-05T20:12:50.769Z,29.67
2018-11-05T20:15:19.589Z,27.27
2018-11-05T20:17:49.477Z,34.60
2018-11-05T20:20:19.641Z,31.80
2018-11-05T20:22:48.446Z,26.10
2018-11-05T20:25:17.164Z,28.73
2018-11-05T20:27:45.925Z,28.57
2018-11-05T20:30:17.132Z,25.40
2018-11-05T20:32:47.010Z,29.30
2018-11-05T20:35:15.669Z,32.13
2018-11-05T20:37:44.446Z,29.67
2018-11-05T20:40:14.528Z,34.33
2018-11-05T20:42:44.391Z,28.83
2018-11-05T20:45:13.562Z,29.80
2018-11-05T20:47:42.716Z,34.00
2018-11-05T20:50:12.322Z,42.53
2018-11-05T20:52:41.105Z,32.73
2018-11-05T20:55:11.078Z,32.40
2018-11-05T20:57:40.278Z,29.47
2018-11-05T21:00:10.564Z,23.47
2018-11-05T21:02:40.029Z,26.57
2018-11-05T21:05:08.797Z,22.93
2018-11-05T21:07:37.797Z,26.70
2018-11-05T21:10:08.162Z,23.93
2018-11-05T21:12:37.108Z,22.77
2018-11-05T21:15:06.836Z,23.80
2018-11-05T21:17:35.580Z,23.60
2018-11-05T21:20:04.266Z,22.70
2018-11-05T21:22:33.209Z,22.13
2018-11-05T21:25:01.835Z,24.17
2018-11-05T21:27:30.625Z,24.97
2018-11-05T21:29:59.359Z,21.13
2018-11-05T21:32:28.079Z,21.20
2018-11-05T21:34:56.890Z,22.30
2018-11-05T21:37:25.631Z,19.97
2018-11-05T21:39:54.375Z,19.43
2018-11-05T21:42:23.196Z,23.63
2018-11-05T21:44:51.974Z,20.40
2018-11-05T21:47:21.013Z,23.90
2018-11-05T21:49:49.721Z,18.03
2018-11-05T21:52:18.454Z,18.27
2018-11-05T21:54:47.219Z,18.20
2018-11-05T21:57:16.151Z,18.47
2018-11-05T21:59:44.928Z,19.77
2018-11-05T22:02:14.009Z,16.87
2018-11-05T22:04:42.752Z,16.77
2018-11-05T22:07:11.524Z,21.40
2018-11-05T22:09:40.433Z,22.73
2018-11-05T22:12:09.309Z,22.17
2018-11-05T22:14:38.213Z,17.17
2018-11-05T22:17:07.223Z,19.03
2018-11-05T22:19:35.973Z,15.67
2018-11-05T22:22:05.141Z,15.17
2018-11-05T22:24:33.891Z,17.27
2018-11-05T22:27:02.657Z,16.63
2018-11-05T22:29:31.402Z,19.97
2018-11-05T22:32:00.146Z,16.43
2018-11-05T22:34:28.862Z,14.50
2018-11-05T22:36:57.612Z,16.30
2018-11-05T22:39:26.407Z,15.80
2018-11-05T22:41:55.240Z,16.10
2018-11-05T22:44:23.963Z,18.30
2018-11-05T22:46:52.759Z,15.17
2018-11-05T22:49:21.467Z,20.07
2018-11-05T22:51:50.228Z,16.43
2018-11-05T22:54:19.147Z,13.63
2018-11-05T22:56:47.892Z,14.73
2018-11-05T22:59:16.692Z,16.83
2018-11-05T23:39:11.056Z,18.07
2018-11-05T23:41:40.004Z,16.17
2018-11-05T23:44:08.803Z,14.10
2018-11-05T23:46:37.583Z,13.77
2018-11-05T23:49:06.471Z,15.57
2018-11-05T23:51:35.413Z,12.90
2018-11-05T23:54:04.578Z,15.07
2018-11-05T23:56:33.512Z,15.40
2018-11-05T23:59:02.261Z,13.03
